Flight Track Log - Related Links

Times and Time Zones

All times are in EDT time to prevent confusion due to time zone crossing. See the SWA182 flight status page for this flight to view local times or setup timezone preferences in your user account.

Time Position Orientation Groundspeed Altitude Reporting Facility
EDT Latitude Longitude Course Direction KTS MPH feet Rate Location/Type
Tue 09:06:15 PM 29.5464 -98.4467 45° Northeast 171 197 1,500  Level Houston Center
Tue 09:07:28 PM 29.5958 -98.3903 45° Northeast 230 265 4,000 2,265 Climbing Houston Center
Tue 09:08:46 PM 29.6633 -98.4003 353° North 280 322 7,200 2,871 Climbing Houston Center
Tue 09:09:48 PM 29.7092 -98.4811 303° West 282 325 10,700 2,878 Climbing Houston Center
Tue 09:10:49 PM 29.7589 -98.5706 303° West 337 388 13,100 2,390 Climbing Houston Center
Tue 09:11:51 PM 29.8117 -98.6656 303° West 353 406 15,600 2,390 Climbing Houston Center
Tue 09:12:52 PM 29.8717 -98.7747 302° West 377 434 18,000 2,488 Climbing Houston Center
Tue 09:13:54 PM 29.9381 -98.8756 307° West 393 452 20,700 2,537 Climbing Houston Center
Tue 09:14:55 PM 30.0119 -98.9808 309° West 393 452 23,200 2,098 Climbing Houston Center
Tue 09:15:57 PM 30.0833 -99.0819 309° West 406 467 25,000 1,500 Climbing Houston Center
Tue 09:16:59 PM 30.1303 -99.1850 298° West 428 493 26,300 1,512 Climbing Houston Center
Tue 09:18:00 PM 30.1711 -99.3467 286° West 439 505 28,100 1,561 Climbing Houston Center
Tue 09:19:02 PM 30.2097 -99.4858 288° West 455 524 29,500 1,610 Climbing Houston Center
Tue 09:20:03 PM 30.2483 -99.6258 288° West 459 528 31,400 1,951 Climbing Houston Center
Tue 09:21:05 PM 30.2847 -99.7631 287° West 452 520 33,500 1,805 Climbing Houston Center
Tue 09:22:06 PM 30.3194 -99.8944 287° West 436 502 35,100 1,512 Climbing Houston Center
Tue 09:23:08 PM 30.3542 -100.0258 287° West 432 497 36,600 1,258 Climbing Houston Center
Tue 09:24:10 PM 30.3881 -100.1528 287° West 419 482 37,700 683 Climbing Houston Center
Tue 09:25:11 PM 30.4283 -100.3094 287° West 432 497 38,000 146 Climbing Houston Center
Tue 09:26:13 PM 30.4622 -100.4367 287° West 423 487 38,000  Level Houston Center
Tue 09:27:14 PM 30.4950 -100.5706 286° West 427 491 38,000  Level Houston Center
Tue 09:28:16 PM 30.5269 -100.7003 286° West 421 484 38,000  Level Houston Center
Tue 09:29:17 PM 30.5600 -100.8303 286° West 420 483 38,000  Level Houston Center
Tue 09:30:19 PM 30.5947 -100.9606 287° West 431 496 38,000  Level Houston Center
Tue 09:31:20 PM 30.6319 -101.1178 285° West 423 487 38,000  Level Houston Center
Tue 09:32:22 PM 30.6669 -101.2472 287° West 429 494 38,000  Level Houston Center
Tue 09:33:23 PM 30.6992 -101.3786 286° West 428 493 38,000  Level Houston Center
Tue 09:34:25 PM 30.7303 -101.5094 285° West 425 489 38,000  Level Houston Center
Tue 09:35:26 PM 30.7633 -101.6519 285° West 415 478 38,000  Level Houston Center
Tue 09:36:27 PM 30.7964 -101.7822 286° West 417 480 38,000  Level Houston Center
Tue 09:37:29 PM 30.8286 -101.9100 286° West 412 474 38,000  Level Houston Center
Tue 09:38:30 PM 30.8592 -102.0378 286° West 414 476 38,000  Level Houston Center
Tue 09:39:31 PM 30.8922 -102.1722 286° West 422 486 38,000  Level Houston Center
Tue 09:40:33 PM 30.9239 -102.3039 286° West 417 480 38,000  Level Houston Center
Tue 09:41:34 PM 30.9553 -102.4356 286° West 415 478 38,000  Level Houston Center
Tue 09:42:21 PM 30.9811 -102.5408 286° West 421 484 38,000  Level Albuquerque Center
Tue 09:43:22 PM 31.0122 -102.6714 286° West 419 482 38,000  Level Albuquerque Center
Tue 09:44:24 PM 31.0436 -102.8011 286° West 415 478 38,000  Level Albuquerque Center
Tue 09:45:25 PM 31.0736 -102.9297 285° West 412 474 38,000  Level Albuquerque Center
Tue 09:46:26 PM 31.1044 -103.0578 286° West 410 472 38,000  Level Albuquerque Center
Tue 09:47:28 PM 31.1336 -103.1861 285° West 410 472 38,000  Level Albuquerque Center
Tue 09:48:29 PM 31.1636 -103.3158 285° West 414 476 38,000  Level Albuquerque Center
Tue 09:49:31 PM 31.2003 -103.4717 285° West 416 479 38,000  Level Albuquerque Center
Tue 09:50:32 PM 31.2292 -103.6008 285° West 414 476 38,000  Level Albuquerque Center
Tue 09:51:33 PM 31.2581 -103.7314 285° West 417 480 38,000  Level Albuquerque Center
Tue 09:52:35 PM 31.2889 -103.8575 286° West 419 482 38,000  Level Albuquerque Center
Tue 09:53:36 PM 31.3197 -103.9881 285° West 419 482 38,000  Level Albuquerque Center
Tue 09:54:38 PM 31.3486 -104.1194 284° West 420 483 38,000  Level Albuquerque Center
Tue 09:55:39 PM 31.3781 -104.2506 285° West 419 482 38,000  Level Albuquerque Center
Tue 09:56:40 PM 31.4139 -104.4089 285° West 421 484 38,000  Level Albuquerque Center
Tue 09:57:42 PM 31.4433 -104.5408 285° West 422 486 38,000  Level Albuquerque Center
Tue 09:58:43 PM 31.4728 -104.6742 285° West 425 489 38,000  Level Albuquerque Center
Tue 09:59:45 PM 31.5022 -104.8056 285° West 423 487 38,000  Level Albuquerque Center
Tue 10:00:46 PM 31.5317 -104.9378 285° West 424 488 38,000  Level Albuquerque Center
Tue 10:01:47 PM 31.5592 -105.0683 284° West 419 482 38,000  Level Albuquerque Center
Tue 10:02:49 PM 31.5878 -105.1992 284° West 417 480 38,000  Level Albuquerque Center
Tue 10:03:50 PM 31.6219 -105.3583 284° West 424 488 38,000  Level Albuquerque Center
Tue 10:04:51 PM 31.6503 -105.4903 284° West 420 483 38,000  Level Albuquerque Center
Tue 10:05:53 PM 31.6772 -105.6222 284° West 419 482 38,000  Level Albuquerque Center
Tue 10:06:54 PM 31.7053 -105.7542 284° West 419 482 38,000  Level Albuquerque Center
Tue 10:07:56 PM 31.7331 -105.8858 284° West 417 480 38,000  Level Albuquerque Center
Tue 10:08:57 PM 31.7600 -106.0158 284° West 413 475 38,000  Level Albuquerque Center
Tue 10:09:58 PM 31.7878 -106.1453 284° West 410 472 38,000  Level Albuquerque Center
Tue 10:11:00 PM 31.8175 -106.2758 285° West 415 478 38,000  Level Albuquerque Center
Tue 10:12:01 PM 31.8286 -106.4369 275° West 413 475 38,000  Level Albuquerque Center
Tue 10:13:02 PM 31.8375 -106.5714 274° West 411 473 38,000  Level Albuquerque Center
Tue 10:14:04 PM 31.8469 -106.6939 275° West 412 474 38,000  Level Albuquerque Center
Tue 10:15:05 PM 31.8575 -106.8264 275° West 406 467 38,000  Level Albuquerque Center
Tue 10:16:06 PM 31.8669 -106.9600 275° West 409 471 38,000  Level Albuquerque Center
Tue 10:17:08 PM 31.8756 -107.0956 274° West 412 474 38,000  Level Albuquerque Center
Tue 10:18:09 PM 31.8875 -107.2572 275° West 414 476 38,000  Level Albuquerque Center
Tue 10:19:11 PM 31.8956 -107.3922 274° West 412 474 38,000  Level Albuquerque Center
Tue 10:20:12 PM 31.9044 -107.5236 275° West 409 471 38,000  Level Albuquerque Center
Tue 10:21:13 PM 31.9133 -107.6567 275° West 405 466 38,000  Level Albuquerque Center
Tue 10:22:15 PM 31.9236 -107.7881 275° West 403 464 38,000  Level Albuquerque Center
Tue 10:23:16 PM 31.9539 -107.9142 286° West 402 463 38,000  Level Albuquerque Center
Tue 10:24:18 PM 31.9839 -108.0417 286° West 401 461 38,000  Level Albuquerque Center
Tue 10:25:19 PM 32.0178 -108.1842 286° West 399 459 38,000  Level Albuquerque Center
Tue 10:26:21 PM 32.0475 -108.3092 286° West 399 459 38,000  Level Albuquerque Center
Tue 10:27:22 PM 32.0775 -108.4356 286° West 401 461 38,000  Level Albuquerque Center
Tue 10:28:24 PM 32.1067 -108.5614 285° West 401 461 38,000  Level Albuquerque Center
Tue 10:29:25 PM 32.1358 -108.6864 285° West 399 459 38,000  Level Albuquerque Center
Tue 10:30:26 PM 32.1647 -108.8125 285° West 400 460 38,000  Level Albuquerque Center
Tue 10:31:28 PM 32.1931 -108.9367 285° West 396 456 38,000  Level Albuquerque Center
Tue 10:32:29 PM 32.2278 -109.0853 285° West 394 453 38,000  Level Albuquerque Center
Tue 10:33:31 PM 32.2558 -109.2089 285° West 392 451 38,000  Level Albuquerque Center
Tue 10:34:32 PM 32.2903 -109.3311 288° West 393 452 38,000  Level Albuquerque Center
Tue 10:35:34 PM 32.3328 -109.4489 293° West 393 452 38,000  Level Albuquerque Center
Tue 10:36:35 PM 32.3750 -109.5678 293° West 394 453 38,000  Level Albuquerque Center
Tue 10:37:37 PM 32.4153 -109.6867 292° West 392 451 38,000  Level Albuquerque Center
Tue 10:38:38 PM 32.4811 -109.7928 306° West 399 459 38,000  Level Albuquerque Center
Tue 10:39:40 PM 32.5864 -109.8956 321° Northwest 407 468 38,000  Level Albuquerque Center
Tue 10:40:41 PM 32.6733 -109.9792 321° Northwest 406 467 38,000  Level Albuquerque Center
Tue 10:41:42 PM 32.7603 -110.0631 321° Northwest 406 467 38,000  Level Albuquerque Center
Tue 10:42:44 PM 32.8219 -110.1664 305° West 401 461 38,000  Level Albuquerque Center
Tue 10:43:45 PM 32.8519 -110.2889 286° West 390 449 38,000  Level Albuquerque Center
Tue 10:44:47 PM 32.8836 -110.4114 287° West 390 449 38,000  Level Albuquerque Center
Tue 10:45:48 PM 32.9133 -110.5347 286° West 390 449 38,000  Level Albuquerque Center
Tue 10:46:49 PM 32.9486 -110.6808 286° West 387 445 38,000  Level Albuquerque Center
Tue 10:47:51 PM 32.9769 -110.7925 287° West 387 445 38,000  Level Albuquerque Center
Tue 10:48:52 PM 33.0061 -110.9181 286° West 391 450 38,000  Level Albuquerque Center
Tue 10:49:53 PM 33.0450 -111.0361 291° West 385 443 38,000  Level Albuquerque Center
Tue 10:50:55 PM 33.0822 -111.1567 290° West 386 444 38,000  Level Albuquerque Center
Tue 10:51:56 PM 33.1192 -111.2775 290° West 386 444 38,000  Level Albuquerque Center
Tue 10:52:58 PM 33.1639 -111.4219 290° West 386 444 38,000  Level Albuquerque Center
Tue 10:53:59 PM 33.2017 -111.5494 290° West 394 453 38,000  Level Albuquerque Center
Tue 10:55:00 PM 33.2372 -111.6703 289° West 395 455 38,000  Level Albuquerque Center
Tue 10:56:02 PM 33.2758 -111.7956 290° West 398 458 38,000  Level Albuquerque Center
Tue 10:57:03 PM 33.3125 -111.9183 290° West 395 455 38,000  Level Albuquerque Center
Tue 10:58:04 PM 33.3492 -112.0406 290° West 392 451 38,000  Level Albuquerque Center
Tue 10:59:06 PM 33.3847 -112.1628 289° West 390 449 38,000  Level Albuquerque Center
Tue 11:00:07 PM 33.4206 -112.2847 289° West 388 447 38,000  Level Albuquerque Center
Tue 11:01:09 PM 33.4569 -112.4083 289° West 390 449 38,000  Level Albuquerque Center
Tue 11:02:10 PM 33.4928 -112.5297 290° West 387 445 38,000  Level Albuquerque Center
Tue 11:03:12 PM 33.5303 -112.6542 290° West 388 447 38,000  Level Albuquerque Center
Tue 11:04:13 PM 33.5719 -112.8025 289° West 392 451 38,000  Level Albuquerque Center
Tue 11:05:14 PM 33.6086 -112.9269 290° West 394 453 38,000  Level Albuquerque Center
Tue 11:06:16 PM 33.6442 -113.0508 289° West 395 455 38,000  Level Albuquerque Center
Tue 11:07:17 PM 33.6789 -113.1728 289° West 392 451 38,000  Level Albuquerque Center
Tue 11:08:19 PM 33.7133 -113.2947 289° West 389 448 38,000  Level Albuquerque Center
Tue 11:09:20 PM 33.7500 -113.4181 290° West 389 448 38,000  Level Albuquerque Center
Tue 11:10:22 PM 33.7847 -113.5406 289° West 387 445 38,000  Level Albuquerque Center
Tue 11:11:23 PM 33.8192 -113.6628 289° West 387 445 38,000  Level Albuquerque Center
Tue 11:12:25 PM 33.8606 -113.8106 289° West 389 448 38,000  Level Albuquerque Center
Tue 11:13:26 PM 33.8831 -113.9358 282° West 386 444 38,000  Level Albuquerque Center
Tue 11:14:28 PM 33.8986 -114.0628 278° West 385 443 38,000  Level Albuquerque Center
Tue 11:15:29 PM 33.9158 -114.1900 279° West 385 443 38,000  Level Albuquerque Center
Tue 11:16:31 PM 33.9319 -114.3144 279° West 389 448 38,000  Level Albuquerque Center
Tue 11:17:32 PM 33.9492 -114.4397 279° West 384 442 38,000  Level Albuquerque Center
Tue 11:18:34 PM 33.9639 -114.5672 278° West 384 442 38,000  Level Albuquerque Center
Tue 11:19:37 PM 33.9817 -114.7003 279° West 383 441 38,000  Level Los Angeles Center
Tue 11:20:38 PM 34.0014 -114.8506 279° West 382 440 38,000  Level Los Angeles Center
Tue 11:21:40 PM 34.0169 -114.9767 278° West 382 440 38,000  Level Los Angeles Center
Tue 11:22:42 PM 34.0333 -115.1022 279° West 381 438 38,000  Level Los Angeles Center
Tue 11:23:43 PM 34.0478 -115.2294 278° West 383 441 38,000 -293 Level Los Angeles Center
Tue 11:24:45 PM 34.0628 -115.3561 278° West 383 441 37,400 -726 Descending Los Angeles Center
Tue 11:25:47 PM 34.0783 -115.4822 279° West 383 441 36,500 -927 Descending Los Angeles Center
Tue 11:26:48 PM 34.0939 -115.6108 278° West 389 448 35,500 -1,073 Descending Los Angeles Center
Tue 11:27:50 PM 34.1103 -115.7628 277° West 383 441 34,300 -732 Descending Los Angeles Center
Tue 11:28:51 PM 34.0950 -115.8861 262° West 376 433 34,000 -146 Descending Los Angeles Center
Tue 11:29:53 PM 34.0775 -116.0064 260° West 370 426 34,000  Level Los Angeles Center
Tue 11:30:55 PM 34.0589 -116.1292 260° West 373 429 34,000 -585 Level Los Angeles Center
Tue 11:31:56 PM 34.0400 -116.2528 260° West 376 433 32,800 -1,805 Descending Los Angeles Center
Tue 11:32:58 PM 34.0222 -116.3725 260° West 368 423 30,300 -2,468 Descending Los Angeles Center
Tue 11:34:00 PM 34.0025 -116.5203 261° West 373 429 27,700 -2,274 Descending Los Angeles Center
Tue 11:35:02 PM 33.9933 -116.6403 265° West 363 418 25,600 -2,049 Descending Los Angeles Center
Tue 11:36:03 PM 33.9842 -116.7539 264° West 346 398 23,500 -2,000 Descending Los Angeles Center
Tue 11:37:05 PM 33.9744 -116.8647 264° West 337 388 21,500 -1,887 Descending Los Angeles Center
Tue 11:38:07 PM 33.9650 -116.9750 264° West 332 382 19,600 -1,935 Descending Los Angeles Center
Tue 11:39:09 PM 33.9564 -117.0819 264° West 323 372 17,500 -1,268 Descending Los Angeles Center
Tue 11:40:10 PM 33.9467 -117.2006 264° West 326 375 17,000 -927 Descending Los Angeles Center
Tue 11:41:12 PM 33.9369 -117.3058 264° West 320 368 15,600 -1,597 Descending Los Angeles Center
Tue 11:42:14 PM 33.9461 -117.4122 276° West 328 377 13,700 -1,966 Descending Los Angeles Center
Tue 11:43:08 PM 33.9833 -117.5167 293° West 316 364 11,800 -1,368 Descending Southern California TRACON
Tue 11:44:08 PM 34.0167 -117.6000 296° West 281 323 11,100 -900 Descending Southern California TRACON
Tue 11:45:08 PM 34.0000 -117.6833 256° West 247 284 10,000 -1,095 Descending Southern California TRACON
Tue 11:46:14 PM 34.0000 -117.7833 270° West 248 285 8,800 -1,190 Descending Southern California TRACON
Tue 11:47:14 PM 33.9833 -117.8667 256° West 252 290 7,500 -1,150 Descending Southern California TRACON
Tue 11:48:14 PM 33.9833 -117.9333 270° West 227 261 6,500 -895 Descending Southern California TRACON
Tue 11:49:08 PM 33.9833 -118.0000 270° West 222 255 5,800 -789 Descending Southern California TRACON
Tue 11:50:08 PM 33.9667 -118.0833 256° West 203 234 5,000 -900 Descending Southern California TRACON
Tue 11:51:08 PM 33.9667 -118.1500 270° West 202 232 4,000 -1,050 Descending Southern California TRACON
Tue 11:52:08 PM 33.9500 -118.2000 248° West 197 227 2,900 -1,050 Descending Southern California TRACON
Tue 11:53:08 PM 33.9500 -118.2667 270° West 181 208 1,900 -900 Descending Southern California TRACON
Tue 11:54:08 PM 33.9500 -118.3167 270° West 140 161 1,100 -750 Descending Southern California TRACON
Tue 11:55:08 PM 33.9333 -118.3667 248° West 134 154 400 -700 Descending Southern California TRACON
Tue 11:57:00 PM 33.9333 -118.4000 270° West  Level FlightAware Approximate

Login

Don't have an account? Register now (free) for customized features, flight alerts, and more!